sensor_id;sensor_type;location;lat;lon;timestamp;P1;durP1;ratioP1;P2;durP2;ratioP2
71965;SDS011;59836;52.132;5.442;2023-12-04T00:00:18;15.23;;;7.13;;
71965;SDS011;59836;52.132;5.442;2023-12-04T00:02:45;14.27;;;6.85;;
71965;SDS011;59836;52.132;5.442;2023-12-04T00:05:11;12.80;;;6.72;;
71965;SDS011;59836;52.132;5.442;2023-12-04T00:07:38;13.32;;;6.18;;
71965;SDS011;59836;52.132;5.442;2023-12-04T00:10:04;17.00;;;7.63;;
71965;SDS011;59836;52.132;5.442;2023-12-04T00:12:32;13.27;;;6.13;;
71965;SDS011;59836;52.132;5.442;2023-12-04T00:14:59;13.07;;;6.03;;
71965;SDS011;59836;52.132;5.442;2023-12-04T00:17:25;14.93;;;6.55;;
71965;SDS011;59836;52.132;5.442;2023-12-04T00:19:52;14.27;;;5.95;;
71965;SDS011;59836;52.132;5.442;2023-12-04T00:22:19;12.82;;;5.93;;
71965;SDS011;59836;52.132;5.442;2023-12-04T00:24:45;13.00;;;6.40;;
71965;SDS011;59836;52.132;5.442;2023-12-04T00:27:12;16.27;;;6.50;;
71965;SDS011;59836;52.132;5.442;2023-12-04T00:29:38;15.75;;;6.45;;
71965;SDS011;59836;52.132;5.442;2023-12-04T00:32:05;13.05;;;6.32;;
71965;SDS011;59836;52.132;5.442;2023-12-04T00:34:32;16.65;;;7.13;;
71965;SDS011;59836;52.132;5.442;2023-12-04T00:36:59;13.63;;;6.73;;
71965;SDS011;59836;52.132;5.442;2023-12-04T00:39:26;13.85;;;6.47;;
71965;SDS011;59836;52.132;5.442;2023-12-04T00:41:53;14.50;;;6.65;;
71965;SDS011;59836;52.132;5.442;2023-12-04T00:44:20;12.93;;;6.28;;
71965;SDS011;59836;52.132;5.442;2023-12-04T00:46:46;14.43;;;6.47;;
71965;SDS011;59836;52.132;5.442;2023-12-04T00:49:13;14.40;;;6.90;;
71965;SDS011;59836;52.132;5.442;2023-12-04T00:51:40;14.98;;;6.55;;
71965;SDS011;59836;52.132;5.442;2023-12-04T00:54:06;17.67;;;6.97;;
71965;SDS011;59836;52.132;5.442;2023-12-04T00:56:33;15.88;;;7.22;;
71965;SDS011;59836;52.132;5.442;2023-12-04T00:59:02;15.65;;;7.03;;
71965;SDS011;59836;52.132;5.442;2023-12-04T01:01:30;15.67;;;6.90;;
71965;SDS011;59836;52.132;5.442;2023-12-04T01:03:56;16.92;;;7.22;;
71965;SDS011;59836;52.132;5.442;2023-12-04T01:06:23;15.93;;;7.78;;
71965;SDS011;59836;52.132;5.442;2023-12-04T01:08:50;16.27;;;7.25;;
71965;SDS011;59836;52.132;5.442;2023-12-04T01:11:17;14.48;;;6.95;;
71965;SDS011;59836;52.132;5.442;2023-12-04T01:13:45;17.07;;;7.57;;
71965;SDS011;59836;52.132;5.442;2023-12-04T01:16:12;16.77;;;7.28;;
71965;SDS011;59836;52.132;5.442;2023-12-04T01:18:40;16.38;;;7.65;;
71965;SDS011;59836;52.132;5.442;2023-12-04T01:21:10;16.95;;;8.10;;
71965;SDS011;59836;52.132;5.442;2023-12-04T01:23:45;16.88;;;8.02;;
71965;SDS011;59836;52.132;5.442;2023-12-04T01:26:18;13.93;;;6.70;;
71965;SDS011;59836;52.132;5.442;2023-12-04T01:28:44;18.48;;;7.78;;
71965;SDS011;59836;52.132;5.442;2023-12-04T01:31:11;18.20;;;7.88;;
71965;SDS011;59836;52.132;5.442;2023-12-04T01:33:38;16.77;;;7.30;;
71965;SDS011;59836;52.132;5.442;2023-12-04T01:36:04;18.40;;;7.80;;
71965;SDS011;59836;52.132;5.442;2023-12-04T01:38:31;18.37;;;7.83;;
71965;SDS011;59836;52.132;5.442;2023-12-04T01:40:58;16.83;;;7.90;;
71965;SDS011;59836;52.132;5.442;2023-12-04T01:43:25;19.73;;;8.07;;
71965;SDS011;59836;52.132;5.442;2023-12-04T01:45:51;17.85;;;8.18;;
71965;SDS011;59836;52.132;5.442;2023-12-04T01:48:19;17.25;;;7.75;;
71965;SDS011;59836;52.132;5.442;2023-12-04T01:50:45;17.53;;;8.37;;
71965;SDS011;59836;52.132;5.442;2023-12-04T01:53:12;18.10;;;8.13;;
71965;SDS011;59836;52.132;5.442;2023-12-04T01:55:39;20.00;;;7.80;;
71965;SDS011;59836;52.132;5.442;2023-12-04T01:58:07;17.38;;;7.47;;
71965;SDS011;59836;52.132;5.442;2023-12-04T02:00:34;21.67;;;9.13;;
71965;SDS011;59836;52.132;5.442;2023-12-04T02:03:01;14.77;;;7.00;;
71965;SDS011;59836;52.132;5.442;2023-12-04T02:05:28;19.60;;;8.32;;
71965;SDS011;59836;52.132;5.442;2023-12-04T02:07:56;17.20;;;8.43;;
71965;SDS011;59836;52.132;5.442;2023-12-04T02:10:22;19.55;;;8.23;;
71965;SDS011;59836;52.132;5.442;2023-12-04T02:12:49;18.17;;;7.70;;
71965;SDS011;59836;52.132;5.442;2023-12-04T02:15:16;17.00;;;8.07;;
71965;SDS011;59836;52.132;5.442;2023-12-04T02:17:43;18.50;;;8.32;;
71965;SDS011;59836;52.132;5.442;2023-12-04T02:20:14;18.13;;;8.23;;
71965;SDS011;59836;52.132;5.442;2023-12-04T02:22:41;17.75;;;7.63;;
71965;SDS011;59836;52.132;5.442;2023-12-04T02:25:08;15.43;;;7.28;;
71965;SDS011;59836;52.132;5.442;2023-12-04T02:27:56;17.87;;;7.23;;
71965;SDS011;59836;52.132;5.442;2023-12-04T02:30:25;15.30;;;7.13;;
71965;SDS011;59836;52.132;5.442;2023-12-04T02:32:55;16.33;;;6.35;;
71965;SDS011;59836;52.132;5.442;2023-12-04T02:35:26;17.20;;;8.05;;
71965;SDS011;59836;52.132;5.442;2023-12-04T02:37:56;15.35;;;7.75;;
71965;SDS011;59836;52.132;5.442;2023-12-04T02:40:24;20.23;;;7.83;;
71965;SDS011;59836;52.132;5.442;2023-12-04T02:42:53;17.98;;;8.02;;
71965;SDS011;59836;52.132;5.442;2023-12-04T02:45:20;20.05;;;8.65;;
71965;SDS011;59836;52.132;5.442;2023-12-04T02:47:47;14.68;;;7.35;;
71965;SDS011;59836;52.132;5.442;2023-12-04T02:50:13;14.93;;;8.10;;
71965;SDS011;59836;52.132;5.442;2023-12-04T02:52:42;19.63;;;8.27;;
71965;SDS011;59836;52.132;5.442;2023-12-04T02:55:08;16.92;;;7.72;;
71965;SDS011;59836;52.132;5.442;2023-12-04T03:00:10;15.77;;;7.40;;
71965;SDS011;59836;52.132;5.442;2023-12-04T03:02:38;14.73;;;7.32;;
71965;SDS011;59836;52.132;5.442;2023-12-04T03:05:04;17.10;;;7.90;;
71965;SDS011;59836;52.132;5.442;2023-12-04T03:07:31;15.02;;;7.60;;
71965;SDS011;59836;52.132;5.442;2023-12-04T03:12:36;15.30;;;7.28;;
71965;SDS011;59836;52.132;5.442;2023-12-04T03:15:03;18.33;;;7.03;;
71965;SDS011;59836;52.132;5.442;2023-12-04T03:17:31;17.53;;;8.07;;
71965;SDS011;59836;52.132;5.442;2023-12-04T03:19:58;18.15;;;7.82;;
71965;SDS011;59836;52.132;5.442;2023-12-04T03:22:24;15.70;;;8.15;;
71965;SDS011;59836;52.132;5.442;2023-12-04T03:24:51;17.75;;;7.50;;
71965;SDS011;59836;52.132;5.442;2023-12-04T03:27:17;14.73;;;7.88;;
71965;SDS011;59836;52.132;5.442;2023-12-04T03:29:44;14.80;;;7.30;;
71965;SDS011;59836;52.132;5.442;2023-12-04T03:32:10;14.40;;;7.45;;
71965;SDS011;59836;52.132;5.442;2023-12-04T03:34:37;17.55;;;7.68;;
71965;SDS011;59836;52.132;5.442;2023-12-04T03:37:05;13.23;;;6.68;;
71965;SDS011;59836;52.132;5.442;2023-12-04T03:39:31;16.17;;;7.50;;
71965;SDS011;59836;52.132;5.442;2023-12-04T03:41:58;17.47;;;7.37;;
71965;SDS011;59836;52.132;5.442;2023-12-04T03:44:29;13.95;;;7.07;;
71965;SDS011;59836;52.132;5.442;2023-12-04T03:46:56;16.05;;;6.80;;
71965;SDS011;59836;52.132;5.442;2023-12-04T03:49:23;15.70;;;7.00;;
71965;SDS011;59836;52.132;5.442;2023-12-04T03:51:50;15.73;;;7.63;;
71965;SDS011;59836;52.132;5.442;2023-12-04T03:54:17;14.90;;;6.80;;
71965;SDS011;59836;52.132;5.442;2023-12-04T03:56:43;16.25;;;6.32;;
71965;SDS011;59836;52.132;5.442;2023-12-04T03:59:10;16.65;;;7.05;;
71965;SDS011;59836;52.132;5.442;2023-12-04T04:01:37;15.52;;;7.07;;
71965;SDS011;59836;52.132;5.442;2023-12-04T04:04:03;15.15;;;6.72;;
71965;SDS011;59836;52.132;5.442;2023-12-04T04:06:30;15.57;;;6.50;;
71965;SDS011;59836;52.132;5.442;2023-12-04T04:08:57;12.70;;;6.78;;
71965;SDS011;59836;52.132;5.442;2023-12-04T04:11:24;12.95;;;5.95;;
71965;SDS011;59836;52.132;5.442;2023-12-04T04:13:51;11.73;;;6.18;;
71965;SDS011;59836;52.132;5.442;2023-12-04T04:16:17;11.43;;;6.18;;
71965;SDS011;59836;52.132;5.442;2023-12-04T04:18:44;15.30;;;6.70;;
71965;SDS011;59836;52.132;5.442;2023-12-04T04:21:11;11.45;;;5.97;;
71965;SDS011;59836;52.132;5.442;2023-12-04T04:23:37;13.60;;;6.03;;
71965;SDS011;59836;52.132;5.442;2023-12-04T04:26:04;11.90;;;5.50;;
71965;SDS011;59836;52.132;5.442;2023-12-04T04:28:31;13.65;;;6.18;;
71965;SDS011;59836;52.132;5.442;2023-12-04T04:30:57;12.63;;;6.67;;
71965;SDS011;59836;52.132;5.442;2023-12-04T04:33:24;11.35;;;6.32;;
71965;SDS011;59836;52.132;5.442;2023-12-04T04:35:50;14.73;;;6.60;;
71965;SDS011;59836;52.132;5.442;2023-12-04T04:38:17;14.10;;;6.65;;
71965;SDS011;59836;52.132;5.442;2023-12-04T04:40:44;15.95;;;7.18;;
71965;SDS011;59836;52.132;5.442;2023-12-04T04:43:10;13.47;;;6.20;;
71965;SDS011;59836;52.132;5.442;2023-12-04T04:45:37;12.95;;;5.75;;
71965;SDS011;59836;52.132;5.442;2023-12-04T04:48:04;11.15;;;4.93;;
71965;SDS011;59836;52.132;5.442;2023-12-04T04:50:31;11.50;;;6.05;;
71965;SDS011;59836;52.132;5.442;2023-12-04T04:52:57;12.40;;;5.68;;
71965;SDS011;59836;52.132;5.442;2023-12-04T04:55:24;10.13;;;5.93;;
71965;SDS011;59836;52.132;5.442;2023-12-04T04:58:10;11.50;;;5.72;;
71965;SDS011;59836;52.132;5.442;2023-12-04T05:00:37;9.25;;;4.78;;
71965;SDS011;59836;52.132;5.442;2023-12-04T05:03:04;12.05;;;5.93;;
71965;SDS011;59836;52.132;5.442;2023-12-04T05:05:30;13.75;;;6.25;;
71965;SDS011;59836;52.132;5.442;2023-12-04T05:07:57;10.20;;;5.73;;
71965;SDS011;59836;52.132;5.442;2023-12-04T05:10:23;12.40;;;5.30;;
71965;SDS011;59836;52.132;5.442;2023-12-04T05:12:50;10.35;;;5.75;;
71965;SDS011;59836;52.132;5.442;2023-12-04T05:15:17;12.30;;;6.47;;
71965;SDS011;59836;52.132;5.442;2023-12-04T05:17:43;11.15;;;5.97;;
71965;SDS011;59836;52.132;5.442;2023-12-04T05:20:10;9.30;;;5.67;;
71965;SDS011;59836;52.132;5.442;2023-12-04T05:22:37;11.23;;;5.60;;
71965;SDS011;59836;52.132;5.442;2023-12-04T05:25:03;14.02;;;6.43;;
71965;SDS011;59836;52.132;5.442;2023-12-04T05:27:30;14.20;;;6.57;;
71965;SDS011;59836;52.132;5.442;2023-12-04T05:29:57;11.65;;;6.13;;
71965;SDS011;59836;52.132;5.442;2023-12-04T05:32:24;15.87;;;6.67;;
71965;SDS011;59836;52.132;5.442;2023-12-04T05:34:51;14.73;;;6.75;;
71965;SDS011;59836;52.132;5.442;2023-12-04T05:37:17;13.90;;;6.63;;
71965;SDS011;59836;52.132;5.442;2023-12-04T05:39:44;12.48;;;5.78;;
71965;SDS011;59836;52.132;5.442;2023-12-04T05:42:10;11.18;;;5.25;;
71965;SDS011;59836;52.132;5.442;2023-12-04T05:44:37;11.10;;;5.13;;
71965;SDS011;59836;52.132;5.442;2023-12-04T05:47:04;13.48;;;6.45;;
71965;SDS011;59836;52.132;5.442;2023-12-04T05:49:30;10.85;;;5.75;;
71965;SDS011;59836;52.132;5.442;2023-12-04T05:51:57;10.20;;;5.00;;
71965;SDS011;59836;52.132;5.442;2023-12-04T05:54:24;9.32;;;5.45;;
71965;SDS011;59836;52.132;5.442;2023-12-04T05:56:51;13.83;;;5.70;;
71965;SDS011;59836;52.132;5.442;2023-12-04T05:59:17;11.27;;;5.20;;
71965;SDS011;59836;52.132;5.442;2023-12-04T06:01:44;11.10;;;5.40;;
71965;SDS011;59836;52.132;5.442;2023-12-04T06:04:11;11.63;;;5.28;;
71965;SDS011;59836;52.132;5.442;2023-12-04T06:06:37;10.90;;;5.78;;
71965;SDS011;59836;52.132;5.442;2023-12-04T06:09:04;10.80;;;5.50;;
71965;SDS011;59836;52.132;5.442;2023-12-04T06:11:31;7.60;;;4.53;;
71965;SDS011;59836;52.132;5.442;2023-12-04T06:13:58;10.13;;;4.95;;
71965;SDS011;59836;52.132;5.442;2023-12-04T06:16:25;10.50;;;5.03;;
71965;SDS011;59836;52.132;5.442;2023-12-04T06:18:51;11.02;;;5.40;;
71965;SDS011;59836;52.132;5.442;2023-12-04T06:21:18;11.20;;;5.17;;
71965;SDS011;59836;52.132;5.442;2023-12-04T06:23:45;10.15;;;5.75;;
71965;SDS011;59836;52.132;5.442;2023-12-04T06:26:12;10.73;;;6.05;;
71965;SDS011;59836;52.132;5.442;2023-12-04T06:28:39;9.30;;;5.22;;
71965;SDS011;59836;52.132;5.442;2023-12-04T06:31:06;11.02;;;6.03;;
71965;SDS011;59836;52.132;5.442;2023-12-04T06:33:33;10.47;;;5.90;;
71965;SDS011;59836;52.132;5.442;2023-12-04T06:36:01;10.90;;;5.88;;
71965;SDS011;59836;52.132;5.442;2023-12-04T06:38:28;10.35;;;4.90;;
71965;SDS011;59836;52.132;5.442;2023-12-04T06:41:00;9.65;;;5.68;;
71965;SDS011;59836;52.132;5.442;2023-12-04T06:43:26;10.63;;;5.55;;
71965;SDS011;59836;52.132;5.442;2023-12-04T06:45:54;8.63;;;4.90;;
71965;SDS011;59836;52.132;5.442;2023-12-04T06:48:23;9.40;;;5.07;;
71965;SDS011;59836;52.132;5.442;2023-12-04T06:50:50;7.50;;;4.88;;
71965;SDS011;59836;52.132;5.442;2023-12-04T06:53:17;9.85;;;5.20;;
71965;SDS011;59836;52.132;5.442;2023-12-04T06:55:43;9.20;;;4.95;;
71965;SDS011;59836;52.132;5.442;2023-12-04T06:58:10;9.80;;;5.20;;
71965;SDS011;59836;52.132;5.442;2023-12-04T07:00:37;9.52;;;5.15;;
71965;SDS011;59836;52.132;5.442;2023-12-04T07:03:04;9.10;;;4.95;;
71965;SDS011;59836;52.132;5.442;2023-12-04T07:05:32;11.57;;;5.47;;
71965;SDS011;59836;52.132;5.442;2023-12-04T07:07:58;11.32;;;5.07;;
71965;SDS011;59836;52.132;5.442;2023-12-04T07:10:25;10.83;;;4.97;;
71965;SDS011;59836;52.132;5.442;2023-12-04T07:12:51;8.40;;;5.15;;
71965;SDS011;59836;52.132;5.442;2023-12-04T07:15:18;10.10;;;5.10;;
71965;SDS011;59836;52.132;5.442;2023-12-04T07:17:44;8.20;;;5.35;;
71965;SDS011;59836;52.132;5.442;2023-12-04T07:20:12;9.60;;;5.30;;
71965;SDS011;59836;52.132;5.442;2023-12-04T07:22:39;9.87;;;5.00;;
71965;SDS011;59836;52.132;5.442;2023-12-04T07:25:08;7.15;;;4.68;;
71965;SDS011;59836;52.132;5.442;2023-12-04T07:27:35;9.75;;;5.05;;
71965;SDS011;59836;52.132;5.442;2023-12-04T07:30:02;11.30;;;5.18;;
71965;SDS011;59836;52.132;5.442;2023-12-04T07:32:30;8.23;;;4.32;;
71965;SDS011;59836;52.132;5.442;2023-12-04T07:34:59;8.43;;;4.97;;
71965;SDS011;59836;52.132;5.442;2023-12-04T07:37:26;8.50;;;4.63;;
71965;SDS011;59836;52.132;5.442;2023-12-04T07:39:52;9.07;;;4.28;;
71965;SDS011;59836;52.132;5.442;2023-12-04T07:42:19;9.18;;;4.53;;
71965;SDS011;59836;52.132;5.442;2023-12-04T07:44:45;8.55;;;4.15;;
71965;SDS011;59836;52.132;5.442;2023-12-04T07:47:13;9.67;;;4.80;;
71965;SDS011;59836;52.132;5.442;2023-12-04T07:49:40;7.95;;;4.43;;
71965;SDS011;59836;52.132;5.442;2023-12-04T07:52:07;7.70;;;4.32;;
71965;SDS011;59836;52.132;5.442;2023-12-04T07:54:34;6.70;;;3.83;;
71965;SDS011;59836;52.132;5.442;2023-12-04T07:57:00;8.93;;;4.45;;
71965;SDS011;59836;52.132;5.442;2023-12-04T07:59:27;8.77;;;4.77;;
71965;SDS011;59836;52.132;5.442;2023-12-04T08:01:53;7.78;;;4.55;;
71965;SDS011;59836;52.132;5.442;2023-12-04T08:04:20;7.47;;;4.57;;
71965;SDS011;59836;52.132;5.442;2023-12-04T08:06:47;7.78;;;4.13;;
71965;SDS011;59836;52.132;5.442;2023-12-04T08:09:13;7.95;;;4.30;;
71965;SDS011;59836;52.132;5.442;2023-12-04T08:11:40;6.03;;;3.60;;
71965;SDS011;59836;52.132;5.442;2023-12-04T08:14:06;7.25;;;3.95;;
71965;SDS011;59836;52.132;5.442;2023-12-04T08:16:33;8.32;;;4.28;;
71965;SDS011;59836;52.132;5.442;2023-12-04T08:18:59;6.72;;;3.92;;
71965;SDS011;59836;52.132;5.442;2023-12-04T08:21:26;8.75;;;4.30;;
71965;SDS011;59836;52.132;5.442;2023-12-04T08:23:53;7.10;;;3.80;;
71965;SDS011;59836;52.132;5.442;2023-12-04T08:26:23;8.38;;;4.45;;
71965;SDS011;59836;52.132;5.442;2023-12-04T08:28:53;8.82;;;3.95;;
71965;SDS011;59836;52.132;5.442;2023-12-04T08:31:20;7.07;;;4.50;;
71965;SDS011;59836;52.132;5.442;2023-12-04T08:33:46;6.82;;;3.95;;
71965;SDS011;59836;52.132;5.442;2023-12-04T08:36:13;7.27;;;4.10;;
71965;SDS011;59836;52.132;5.442;2023-12-04T08:38:39;6.95;;;4.00;;
71965;SDS011;59836;52.132;5.442;2023-12-04T08:41:06;7.53;;;3.88;;
71965;SDS011;59836;52.132;5.442;2023-12-04T08:43:33;9.25;;;3.47;;
71965;SDS011;59836;52.132;5.442;2023-12-04T08:45:59;8.32;;;3.80;;
71965;SDS011;59836;52.132;5.442;2023-12-04T08:48:27;8.03;;;3.87;;
71965;SDS011;59836;52.132;5.442;2023-12-04T08:50:54;9.05;;;4.30;;
71965;SDS011;59836;52.132;5.442;2023-12-04T08:53:20;8.15;;;3.88;;
71965;SDS011;59836;52.132;5.442;2023-12-04T08:55:47;7.78;;;3.83;;
71965;SDS011;59836;52.132;5.442;2023-12-04T08:58:13;8.45;;;4.18;;
71965;SDS011;59836;52.132;5.442;2023-12-04T09:00:40;7.20;;;4.20;;
71965;SDS011;59836;52.132;5.442;2023-12-04T09:03:09;8.90;;;4.13;;
71965;SDS011;59836;52.132;5.442;2023-12-04T09:05:47;10.52;;;4.53;;
71965;SDS011;59836;52.132;5.442;2023-12-04T09:08:17;8.13;;;4.13;;
71965;SDS011;59836;52.132;5.442;2023-12-04T09:11:01;9.02;;;5.00;;
71965;SDS011;59836;52.132;5.442;2023-12-04T09:13:47;6.90;;;3.90;;
71965;SDS011;59836;52.132;5.442;2023-12-04T09:16:14;6.78;;;4.38;;
71965;SDS011;59836;52.132;5.442;2023-12-04T09:18:40;6.28;;;3.50;;
71965;SDS011;59836;52.132;5.442;2023-12-04T09:21:07;8.38;;;4.43;;
71965;SDS011;59836;52.132;5.442;2023-12-04T09:23:35;7.72;;;4.20;;
71965;SDS011;59836;52.132;5.442;2023-12-04T09:26:01;6.57;;;3.33;;
71965;SDS011;59836;52.132;5.442;2023-12-04T09:28:28;8.55;;;3.67;;
71965;SDS011;59836;52.132;5.442;2023-12-04T09:30:55;8.45;;;4.05;;
71965;SDS011;59836;52.132;5.442;2023-12-04T09:33:21;6.13;;;3.40;;
71965;SDS011;59836;52.132;5.442;2023-12-04T09:35:48;7.93;;;4.47;;
71965;SDS011;59836;52.132;5.442;2023-12-04T09:38:14;6.37;;;3.87;;
71965;SDS011;59836;52.132;5.442;2023-12-04T09:40:41;7.55;;;3.83;;
71965;SDS011;59836;52.132;5.442;2023-12-04T09:43:07;7.03;;;3.45;;
71965;SDS011;59836;52.132;5.442;2023-12-04T09:45:34;6.93;;;3.90;;
71965;SDS011;59836;52.132;5.442;2023-12-04T09:48:01;6.22;;;3.90;;
71965;SDS011;59836;52.132;5.442;2023-12-04T09:50:29;7.27;;;3.73;;
71965;SDS011;59836;52.132;5.442;2023-12-04T09:52:55;5.72;;;3.30;;
71965;SDS011;59836;52.132;5.442;2023-12-04T09:55:26;6.28;;;3.53;;
71965;SDS011;59836;52.132;5.442;2023-12-04T09:57:52;6.13;;;3.60;;
71965;SDS011;59836;52.132;5.442;2023-12-04T10:00:21;6.47;;;3.55;;
71965;SDS011;59836;52.132;5.442;2023-12-04T10:02:48;9.50;;;3.83;;
71965;SDS011;59836;52.132;5.442;2023-12-04T10:05:15;6.43;;;3.80;;
71965;SDS011;59836;52.132;5.442;2023-12-04T10:07:41;7.53;;;3.60;;
71965;SDS011;59836;52.132;5.442;2023-12-04T10:10:08;5.72;;;3.65;;
71965;SDS011;59836;52.132;5.442;2023-12-04T10:12:35;6.57;;;3.33;;
71965;SDS011;59836;52.132;5.442;2023-12-04T10:17:37;6.70;;;3.50;;
71965;SDS011;59836;52.132;5.442;2023-12-04T10:20:05;5.55;;;3.17;;
71965;SDS011;59836;52.132;5.442;2023-12-04T10:22:38;6.90;;;3.20;;
71965;SDS011;59836;52.132;5.442;2023-12-04T10:25:16;6.22;;;3.92;;
71965;SDS011;59836;52.132;5.442;2023-12-04T10:27:44;8.57;;;4.00;;
71965;SDS011;59836;52.132;5.442;2023-12-04T10:30:25;6.43;;;3.90;;
71965;SDS011;59836;52.132;5.442;2023-12-04T10:33:03;5.13;;;3.28;;
71965;SDS011;59836;52.132;5.442;2023-12-04T10:35:32;6.75;;;3.85;;
71965;SDS011;59836;52.132;5.442;2023-12-04T10:37:59;7.80;;;3.95;;
71965;SDS011;59836;52.132;5.442;2023-12-04T10:40:26;6.47;;;3.30;;
71965;SDS011;59836;52.132;5.442;2023-12-04T10:45:37;7.05;;;3.88;;
71965;SDS011;59836;52.132;5.442;2023-12-04T10:48:05;7.35;;;3.92;;
71965;SDS011;59836;52.132;5.442;2023-12-04T10:50:33;7.50;;;4.28;;
71965;SDS011;59836;52.132;5.442;2023-12-04T10:53:01;6.73;;;2.83;;
71965;SDS011;59836;52.132;5.442;2023-12-04T10:55:30;7.22;;;4.22;;
71965;SDS011;59836;52.132;5.442;2023-12-04T10:57:58;7.38;;;3.95;;
71965;SDS011;59836;52.132;5.442;2023-12-04T11:00:26;8.77;;;4.47;;
71965;SDS011;59836;52.132;5.442;2023-12-04T11:02:55;6.20;;;3.55;;
71965;SDS011;59836;52.132;5.442;2023-12-04T11:05:23;10.40;;;4.00;;
71965;SDS011;59836;52.132;5.442;2023-12-04T11:07:50;8.70;;;4.28;;
71965;SDS011;59836;52.132;5.442;2023-12-04T11:10:44;6.60;;;4.22;;
71965;SDS011;59836;52.132;5.442;2023-12-04T11:13:21;6.97;;;3.85;;
71965;SDS011;59836;52.132;5.442;2023-12-04T11:15:56;8.10;;;4.35;;
71965;SDS011;59836;52.132;5.442;2023-12-04T11:18:27;6.57;;;3.77;;
71965;SDS011;59836;52.132;5.442;2023-12-04T11:20:58;7.75;;;3.92;;
71965;SDS011;59836;52.132;5.442;2023-12-04T11:23:31;9.68;;;4.35;;
71965;SDS011;59836;52.132;5.442;2023-12-04T11:25:58;7.55;;;4.32;;
71965;SDS011;59836;52.132;5.442;2023-12-04T11:28:26;6.85;;;4.70;;
71965;SDS011;59836;52.132;5.442;2023-12-04T11:30:54;8.07;;;4.40;;
71965;SDS011;59836;52.132;5.442;2023-12-04T11:33:21;9.43;;;4.57;;
71965;SDS011;59836;52.132;5.442;2023-12-04T11:35:49;8.68;;;4.40;;
71965;SDS011;59836;52.132;5.442;2023-12-04T11:38:17;10.63;;;4.82;;
71965;SDS011;59836;52.132;5.442;2023-12-04T11:40:45;8.60;;;4.90;;
71965;SDS011;59836;52.132;5.442;2023-12-04T11:43:25;10.73;;;4.60;;
71965;SDS011;59836;52.132;5.442;2023-12-04T11:45:53;8.23;;;5.00;;
71965;SDS011;59836;52.132;5.442;2023-12-04T11:48:33;10.82;;;4.88;;
71965;SDS011;59836;52.132;5.442;2023-12-04T11:51:00;10.15;;;5.00;;
71965;SDS011;59836;52.132;5.442;2023-12-04T11:53:27;8.80;;;4.50;;
71965;SDS011;59836;52.132;5.442;2023-12-04T11:55:55;9.77;;;4.90;;
71965;SDS011;59836;52.132;5.442;2023-12-04T11:58:23;9.77;;;4.88;;
71965;SDS011;59836;52.132;5.442;2023-12-04T12:00:50;9.63;;;5.05;;
71965;SDS011;59836;52.132;5.442;2023-12-04T12:03:18;7.75;;;4.72;;
71965;SDS011;59836;52.132;5.442;2023-12-04T12:05:49;8.32;;;4.75;;
71965;SDS011;59836;52.132;5.442;2023-12-04T12:08:19;9.27;;;4.90;;
71965;SDS011;59836;52.132;5.442;2023-12-04T12:10:46;7.45;;;4.80;;
71965;SDS011;59836;52.132;5.442;2023-12-04T12:13:13;8.88;;;4.60;;
71965;SDS011;59836;52.132;5.442;2023-12-04T12:15:40;8.93;;;4.85;;
71965;SDS011;59836;52.132;5.442;2023-12-04T12:18:07;9.05;;;5.13;;
71965;SDS011;59836;52.132;5.442;2023-12-04T12:20:36;12.50;;;5.67;;
71965;SDS011;59836;52.132;5.442;2023-12-04T12:23:03;9.90;;;5.03;;
71965;SDS011;59836;52.132;5.442;2023-12-04T12:25:29;8.43;;;4.57;;
71965;SDS011;59836;52.132;5.442;2023-12-04T12:27:56;7.35;;;4.55;;
71965;SDS011;59836;52.132;5.442;2023-12-04T12:30:23;9.77;;;5.10;;
71965;SDS011;59836;52.132;5.442;2023-12-04T12:32:50;9.00;;;4.53;;
71965;SDS011;59836;52.132;5.442;2023-12-04T12:35:17;8.88;;;5.35;;
71965;SDS011;59836;52.132;5.442;2023-12-04T12:37:43;8.00;;;5.03;;
71965;SDS011;59836;52.132;5.442;2023-12-04T12:40:10;8.75;;;4.88;;
71965;SDS011;59836;52.132;5.442;2023-12-04T12:42:37;9.52;;;5.15;;
71965;SDS011;59836;52.132;5.442;2023-12-04T12:45:13;8.70;;;4.97;;
71965;SDS011;59836;52.132;5.442;2023-12-04T12:47:40;9.05;;;4.20;;
71965;SDS011;59836;52.132;5.442;2023-12-04T12:50:08;8.35;;;4.40;;
71965;SDS011;59836;52.132;5.442;2023-12-04T12:52:37;10.35;;;5.43;;
71965;SDS011;59836;52.132;5.442;2023-12-04T12:55:04;10.25;;;4.90;;
71965;SDS011;59836;52.132;5.442;2023-12-04T12:57:31;10.50;;;5.23;;
71965;SDS011;59836;52.132;5.442;2023-12-04T12:59:58;9.10;;;5.18;;
71965;SDS011;59836;52.132;5.442;2023-12-04T13:02:25;8.07;;;5.35;;
71965;SDS011;59836;52.132;5.442;2023-12-04T13:04:52;9.30;;;5.13;;
71965;SDS011;59836;52.132;5.442;2023-12-04T13:07:19;10.02;;;5.80;;
71965;SDS011;59836;52.132;5.442;2023-12-04T13:09:47;9.57;;;5.43;;
71965;SDS011;59836;52.132;5.442;2023-12-04T13:12:14;9.57;;;5.63;;
71965;SDS011;59836;52.132;5.442;2023-12-04T13:14:41;9.50;;;4.82;;
71965;SDS011;59836;52.132;5.442;2023-12-04T13:17:07;9.35;;;4.70;;
71965;SDS011;59836;52.132;5.442;2023-12-04T13:19:34;12.18;;;5.10;;
71965;SDS011;59836;52.132;5.442;2023-12-04T13:22:02;9.17;;;4.97;;
71965;SDS011;59836;52.132;5.442;2023-12-04T13:24:30;9.40;;;5.80;;
71965;SDS011;59836;52.132;5.442;2023-12-04T13:26:57;7.90;;;4.25;;
71965;SDS011;59836;52.132;5.442;2023-12-04T13:29:23;11.15;;;5.40;;
71965;SDS011;59836;52.132;5.442;2023-12-04T13:31:50;9.85;;;5.57;;
71965;SDS011;59836;52.132;5.442;2023-12-04T13:34:17;9.17;;;4.90;;
71965;SDS011;59836;52.132;5.442;2023-12-04T13:36:44;9.07;;;5.57;;
71965;SDS011;59836;52.132;5.442;2023-12-04T13:39:10;11.77;;;5.38;;
71965;SDS011;59836;52.132;5.442;2023-12-04T13:41:44;8.05;;;5.00;;
71965;SDS011;59836;52.132;5.442;2023-12-04T13:44:30;9.02;;;5.03;;
71965;SDS011;59836;52.132;5.442;2023-12-04T13:46:57;8.03;;;4.47;;
71965;SDS011;59836;52.132;5.442;2023-12-04T13:49:23;7.38;;;4.47;;
71965;SDS011;59836;52.132;5.442;2023-12-04T13:51:50;9.63;;;5.15;;
71965;SDS011;59836;52.132;5.442;2023-12-04T13:54:16;10.32;;;4.97;;
71965;SDS011;59836;52.132;5.442;2023-12-04T13:56:48;8.95;;;4.75;;
71965;SDS011;59836;52.132;5.442;2023-12-04T13:59:22;7.30;;;4.87;;
71965;SDS011;59836;52.132;5.442;2023-12-04T14:01:50;8.30;;;4.85;;
71965;SDS011;59836;52.132;5.442;2023-12-04T14:04:26;9.23;;;4.53;;
71965;SDS011;59836;52.132;5.442;2023-12-04T14:06:54;8.50;;;4.90;;
71965;SDS011;59836;52.132;5.442;2023-12-04T14:09:26;11.30;;;5.55;;
71965;SDS011;59836;52.132;5.442;2023-12-04T14:11:52;10.93;;;5.07;;
71965;SDS011;59836;52.132;5.442;2023-12-04T14:14:19;8.98;;;5.22;;
71965;SDS011;59836;52.132;5.442;2023-12-04T14:16:45;9.18;;;4.63;;
71965;SDS011;59836;52.132;5.442;2023-12-04T14:19:13;8.77;;;4.93;;
71965;SDS011;59836;52.132;5.442;2023-12-04T14:21:43;7.85;;;4.32;;
71965;SDS011;59836;52.132;5.442;2023-12-04T14:24:09;9.30;;;4.70;;
71965;SDS011;59836;52.132;5.442;2023-12-04T14:26:36;9.13;;;4.60;;
71965;SDS011;59836;52.132;5.442;2023-12-04T14:29:02;8.38;;;5.03;;
71965;SDS011;59836;52.132;5.442;2023-12-04T14:31:29;8.82;;;5.07;;
71965;SDS011;59836;52.132;5.442;2023-12-04T14:33:56;8.88;;;5.03;;
71965;SDS011;59836;52.132;5.442;2023-12-04T14:36:23;8.27;;;4.70;;
71965;SDS011;59836;52.132;5.442;2023-12-04T14:38:50;8.93;;;4.90;;
71965;SDS011;59836;52.132;5.442;2023-12-04T14:41:16;9.32;;;5.30;;
71965;SDS011;59836;52.132;5.442;2023-12-04T14:43:42;9.52;;;5.38;;
71965;SDS011;59836;52.132;5.442;2023-12-04T14:46:09;9.02;;;5.45;;
71965;SDS011;59836;52.132;5.442;2023-12-04T14:48:39;9.27;;;5.33;;
71965;SDS011;59836;52.132;5.442;2023-12-04T14:51:07;9.82;;;4.43;;
71965;SDS011;59836;52.132;5.442;2023-12-04T14:53:38;8.40;;;5.13;;